Time;durP1;ratioP1;P1;durP2;ratioP2;P2;SDS_P1;SDS_P2;PMS_P1;PMS_P2;Temp;Humidity;BMP_temperature;BMP_pressure;BME280_temperature;BME280_humidity;BME280_pressure;Samples;Min_cycle;Max_cycle;Signal;HPM_P1;HPM_P2
2021/10/05 00:00:16;;;;;;;27.35;19.60;;;14.20;79.10;;;13.81;64.70;94768.66;5037112;28;20673;-80
2021/10/05 00:02:43;;;;;;;24.15;18.52;;;14.30;79.10;;;13.79;64.84;94767.25;5052831;28;20257;-80
2021/10/05 00:05:11;;;;;;;24.35;18.88;;;14.20;79.00;;;13.77;64.64;94764.84;5037190;28;20203;-79
2021/10/05 00:07:38;;;;;;;23.55;18.10;;;14.20;79.00;;;13.69;64.79;94752.72;5035880;28;20223;-80
2021/10/05 00:10:09;;;;;;;24.65;18.90;;;14.20;79.10;;;13.71;64.59;94766.50;5036377;28;20337;-80
2021/10/05 00:12:37;;;;;;;21.65;17.50;;;14.10;79.10;;;13.69;64.55;94759.84;5049780;28;20273;-80
2021/10/05 00:15:07;;;;;;;23.65;18.05;;;14.20;79.10;;;13.66;65.08;94763.72;5017461;28;20200;-79
2021/10/05 00:17:35;;;;;;;22.65;18.30;;;14.10;79.30;;;13.65;64.97;94763.94;5029378;28;20223;-79
2021/10/05 00:20:06;;;;;;;22.35;17.42;;;14.10;79.10;;;13.61;64.83;94755.66;5036691;28;20200;-79
2021/10/05 00:22:33;;;;;;;21.58;16.73;;;14.00;79.30;;;13.61;64.69;94758.28;5020254;28;20223;-80
2021/10/05 00:25:01;;;;;;;23.50;18.00;;;14.00;79.20;;;13.58;64.85;94751.59;5036610;28;20245;-81
2021/10/05 00:27:28;;;;;;;22.08;16.63;;;14.00;79.20;;;13.59;64.96;94755.03;5052991;28;20289;-80
2021/10/05 00:29:55;;;;;;;25.08;18.00;;;14.00;79.30;;;13.56;64.98;94744.91;5052014;28;20196;-80
2021/10/05 00:32:22;;;;;;;21.15;17.15;;;13.90;79.10;;;13.53;64.92;94729.56;5052018;28;20211;-80
2021/10/05 00:34:50;;;;;;;21.05;17.20;;;14.00;79.20;;;13.51;64.90;94727.13;5053083;28;20233;-79
2021/10/05 00:37:17;;;;;;;21.90;16.55;;;13.90;79.20;;;13.49;65.06;94726.53;5068631;28;20700;-79
2021/10/05 00:39:45;;;;;;;25.27;16.65;;;14.00;79.20;;;13.41;64.94;94711.78;5052484;28;20202;-79
2021/10/05 00:42:12;;;;;;;25.23;18.05;;;13.90;79.20;;;13.44;64.99;94716.63;5034829;28;20225;-79
2021/10/05 00:44:40;;;;;;;37.83;18.05;;;13.90;79.20;;;13.43;65.00;94712.38;5052414;28;20294;-79
2021/10/05 00:47:12;;;;;;;23.67;17.95;;;13.80;79.20;;;13.37;64.96;94693.97;5019664;28;20235;-79
2021/10/05 00:49:42;;;;;;;22.77;17.38;;;13.90;79.50;;;13.38;64.97;94695.63;5049126;28;20192;-79
2021/10/05 00:52:11;;;;;;;20.80;16.98;;;13.80;79.30;;;13.36;65.20;94695.00;5049006;28;20223;-79
2021/10/05 00:54:40;;;;;;;23.15;17.20;;;13.80;79.40;;;13.34;64.98;94692.59;5035628;28;20196;-79
2021/10/05 00:57:10;;;;;;;23.73;18.05;;;13.80;79.40;;;13.33;65.35;94693.59;5052362;28;20246;-79
2021/10/05 00:59:38;;;;;;;22.20;17.35;;;13.80;79.40;;;13.31;65.16;94686.94;5051489;28;20203;-79
2021/10/05 01:02:14;;;;;;;23.05;17.45;;;13.70;79.30;;;13.28;65.26;94688.97;5033758;28;20254;-79
2021/10/05 01:04:42;;;;;;;20.77;16.40;;;13.70;79.80;;;13.24;65.25;94679.06;5052072;28;20206;-79
2021/10/05 01:07:15;;;;;;;22.55;17.25;;;13.70;79.30;;;13.22;65.20;94678.47;5043691;28;20219;-80
2021/10/05 01:09:44;;;;;;;22.45;17.20;;;13.70;79.50;;;13.20;65.21;94670.78;5051678;28;20199;-79
2021/10/05 01:12:12;;;;;;;21.27;17.98;;;13.60;79.20;;;13.18;65.20;94666.75;5051541;28;20288;-79
2021/10/05 01:14:41;;;;;;;23.65;17.90;;;13.60;79.40;;;13.18;65.25;94664.13;5034886;28;20242;-79
2021/10/05 01:17:09;;;;;;;23.20;17.55;;;13.60;79.40;;;13.14;65.01;94663.75;5015564;28;20741;-79
2021/10/05 01:19:36;;;;;;;23.73;17.85;;;13.60;79.80;;;13.15;65.44;94657.47;5049932;28;20595;-79
2021/10/05 01:22:04;;;;;;;23.13;17.17;;;13.60;79.50;;;13.15;65.55;94651.41;5015332;28;20685;-79
2021/10/05 01:24:33;;;;;;;21.98;17.30;;;13.60;79.60;;;13.15;65.43;94635.59;5030584;28;20195;-79
2021/10/05 01:27:00;;;;;;;23.35;17.88;;;13.60;79.70;;;13.15;65.82;94635.59;5062846;28;20295;-80
2021/10/05 01:29:31;;;;;;;24.92;18.60;;;13.50;79.60;;;13.13;65.58;94630.53;5031169;28;20262;-80
2021/10/05 01:32:02;;;;;;;21.70;17.77;;;13.60;79.90;;;13.13;65.47;94641.06;5032824;28;20234;-79
2021/10/05 01:34:30;;;;;;;22.92;18.15;;;13.50;79.80;;;13.13;65.90;94633.16;5033470;28;20202;-79
2021/10/05 01:36:58;;;;;;;25.10;19.80;;;13.50;79.70;;;13.13;65.72;94620.00;5013379;28;20243;-80
2021/10/05 01:39:31;;;;;;;23.92;18.45;;;13.60;79.90;;;13.13;65.84;94627.91;5049540;28;20548;-80
2021/10/05 01:42:09;;;;;;;22.30;17.80;;;13.50;79.80;;;13.13;65.57;94625.25;5066280;28;20269;-80
2021/10/05 01:44:38;;;;;;;24.42;17.75;;;13.50;80.00;;;13.10;65.56;94615.97;5049706;28;20302;-80
2021/10/05 01:47:07;;;;;;;23.35;18.02;;;13.60;80.00;;;13.10;65.74;94617.81;5031743;28;20230;-80
2021/10/05 01:49:35;;;;;;;24.55;19.08;;;13.60;80.90;;;13.13;65.64;94614.72;5027826;28;20282;-79
2021/10/05 01:52:05;;;;;;;23.67;19.45;;;13.50;79.90;;;13.11;65.91;94604.41;5023702;28;20265;-80
2021/10/05 01:54:33;;;;;;;25.55;18.70;;;13.50;80.00;;;13.11;65.97;94590.47;5049737;28;20278;-79
2021/10/05 01:57:00;;;;;;;24.15;17.85;;;13.50;80.00;;;13.12;65.94;94603.41;5066772;28;20627;-80
2021/10/05 01:59:27;;;;;;;22.70;18.58;;;13.50;80.10;;;13.17;66.21;94601.94;5034890;28;20653;-80
2021/10/05 02:01:55;;;;;;;21.45;18.20;;;13.60;80.30;;;13.20;66.09;94583.88;5051256;28;20266;-80
2021/10/05 02:04:23;;;;;;;25.85;18.63;;;13.50;80.40;;;13.27;66.10;94575.94;5068147;28;20199;-80
2021/10/05 02:06:50;;;;;;;24.23;18.88;;;13.50;80.50;;;13.34;66.24;94570.59;5030801;28;20251;-80
2021/10/05 02:09:17;;;;;;;23.77;17.98;;;13.60;80.80;;;13.38;66.10;94564.72;5015021;28;20291;-80
2021/10/05 02:11:45;;;;;;;23.80;18.48;;;13.60;80.80;;;13.48;66.12;94574.75;5005599;28;20252;-81
2021/10/05 02:14:13;;;;;;;26.00;18.30;;;13.70;80.90;;;13.53;66.20;94566.97;5068017;28;20285;-80
2021/10/05 02:16:40;;;;;;;23.98;18.42;;;13.70;80.90;;;13.55;66.18;94549.13;5034450;28;20222;-79
2021/10/05 02:19:09;;;;;;;21.75;17.63;;;13.80;81.00;;;13.65;66.22;94542.56;5017885;28;20196;-80
2021/10/05 02:21:36;;;;;;;24.65;19.08;;;13.80;81.00;;;13.71;66.26;94542.47;5030569;28;20220;-81
2021/10/05 02:26:53;;;;;;;24.88;18.70;;;13.90;81.00;;;13.83;66.24;94526.72;5035995;28;20223;-79
2021/10/05 02:29:21;;;;;;;22.00;18.15;;;14.00;81.10;;;13.89;66.30;94522.38;5034128;28;20293;-81
2021/10/05 02:31:50;;;;;;;22.40;19.08;;;14.00;81.00;;;13.91;66.26;94521.16;5050708;28;20215;-81
2021/10/05 02:34:19;;;;;;;22.40;17.10;;;14.10;81.10;;;14.01;66.13;94533.00;5034621;28;20703;-80
2021/10/05 02:36:46;;;;;;;22.63;17.88;;;14.20;81.20;;;14.05;66.02;94534.19;5034217;28;20515;-80
2021/10/05 02:39:14;;;;;;;24.88;19.40;;;14.30;81.20;;;14.09;66.25;94525.56;5017939;28;20253;-80
2021/10/05 02:41:41;;;;;;;24.85;19.40;;;14.30;81.20;;;14.16;66.21;94530.78;5049603;28;20298;-79
2021/10/05 02:44:08;;;;;;;24.75;19.15;;;14.30;81.10;;;14.19;66.37;94529.53;5034367;28;20203;-81
2021/10/05 02:46:36;;;;;;;25.85;19.92;;;14.30;81.10;;;14.22;66.17;94535.16;5033314;28;20737;-80
2021/10/05 02:49:05;;;;;;;28.13;20.45;;;14.40;81.20;;;14.27;66.26;94547.69;5050784;28;20199;-79
2021/10/05 02:51:33;;;;;;;28.95;20.20;;;14.50;81.20;;;14.31;66.31;94543.56;5050467;28;20212;-80
2021/10/05 02:54:00;;;;;;;39.20;20.48;;;14.50;81.20;;;14.34;66.16;94535.19;5017849;28;20273;-80
2021/10/05 02:56:28;;;;;;;32.70;21.83;;;14.50;81.10;;;14.39;66.26;94532.69;5017853;28;20211;-81
2021/10/05 02:58:55;;;;;;;33.75;20.77;;;14.60;81.20;;;14.40;66.10;94530.84;5050085;28;20208;-80
2021/10/05 03:01:22;;;;;;;52.55;21.17;;;14.60;81.10;;;14.45;66.35;94530.16;5032633;28;20239;-80
2021/10/05 03:03:50;;;;;;;34.45;21.05;;;14.70;81.20;;;14.47;65.71;94525.47;5018728;28;20192;-80
2021/10/05 03:06:17;;;;;;;35.47;21.65;;;14.70;81.10;;;14.48;66.27;94525.25;5021360;28;20592;-80
2021/10/05 03:08:44;;;;;;;42.63;22.02;;;14.60;81.00;;;14.49;66.11;94521.59;5037481;28;20196;-80
2021/10/05 03:11:12;;;;;;;29.48;20.52;;;14.70;81.00;;;14.53;66.25;94525.38;5054045;28;20269;-80
2021/10/05 03:13:40;;;;;;;33.30;19.77;;;14.70;81.10;;;14.54;66.16;94518.28;5021416;28;20631;-80
2021/10/05 03:16:07;;;;;;;38.78;20.67;;;14.70;81.10;;;14.54;66.00;94511.16;5054152;28;20219;-81
2021/10/05 03:18:35;;;;;;;39.88;20.65;;;14.80;81.20;;;14.58;66.26;94506.22;5037958;28;20222;-80
2021/10/05 03:21:02;;;;;;;45.08;20.42;;;14.80;81.90;;;14.60;66.01;94514.72;5037650;28;20234;-80
2021/10/05 03:23:30;;;;;;;31.85;20.17;;;14.80;81.20;;;14.61;66.05;94504.97;5021634;28;20214;-80
2021/10/05 03:25:57;;;;;;;31.30;19.73;;;14.80;81.10;;;14.62;66.12;94507.38;5052709;28;20219;-79
2021/10/05 03:28:24;;;;;;;41.80;21.83;;;14.80;82.00;;;14.65;66.47;94508.78;5032961;28;20302;-81
2021/10/05 03:30:53;;;;;;;33.05;21.00;;;14.90;81.20;;;14.67;66.17;94499.63;5037889;28;20219;-80
2021/10/05 03:33:21;;;;;;;40.85;21.52;;;14.90;81.40;;;14.70;65.97;94496.50;5054246;28;20203;-79
2021/10/05 03:35:48;;;;;;;40.92;21.83;;;14.90;81.30;;;14.71;66.50;94482.28;5053410;28;20697;-81
2021/10/05 03:38:16;;;;;;;33.95;22.75;;;15.00;82.20;;;14.76;66.25;94492.16;5037502;28;20728;-80
2021/10/05 03:40:43;;;;;;;40.72;23.77;;;15.00;81.50;;;14.78;66.69;94482.19;5050187;28;20287;-80
2021/10/05 03:43:10;;;;;;;48.63;24.08;;;14.90;81.40;;;14.79;66.45;94475.84;5050823;28;20257;-81
2021/10/05 03:45:37;;;;;;;74.95;24.00;;;15.00;81.50;;;14.86;66.31;94467.84;5052371;28;20206;-80
2021/10/05 03:48:04;;;;;;;47.72;23.73;;;15.00;81.60;;;14.88;66.47;94460.50;5033498;28;20246;-81
2021/10/05 03:50:31;;;;;;;54.70;23.70;;;15.00;81.50;;;14.92;66.68;94458.22;5034009;28;20188;-80
2021/10/05 03:52:58;;;;;;;48.33;23.63;;;15.10;81.60;;;14.94;66.48;94458.75;5033963;28;20554;-81
2021/10/05 03:55:26;;;;;;;57.63;23.45;;;15.10;81.60;;;14.96;66.58;94465.41;5033590;28;20283;-80
2021/10/05 03:57:53;;;;;;;78.60;23.38;;;15.10;81.60;;;15.00;66.50;94456.03;5033759;28;20242;-81
2021/10/05 04:00:20;;;;;;;90.07;24.63;;;15.10;81.60;;;15.02;66.63;94447.84;5035486;28;20674;-80
2021/10/05 04:02:47;;;;;;;46.58;23.58;;;15.10;81.60;;;15.06;66.35;94446.34;5053516;28;20211;-80
2021/10/05 04:05:14;;;;;;;55.50;23.67;;;15.20;81.70;;;15.08;66.53;94451.44;5053748;28;20207;-81
2021/10/05 04:07:41;;;;;;;86.10;24.33;;;15.20;81.70;;;15.10;66.43;94444.88;5069651;28;20644;-80
2021/10/05 04:10:09;;;;;;;62.95;25.00;;;15.20;81.70;;;15.13;66.52;94439.09;5059411;28;20713;-80
2021/10/05 04:12:36;;;;;;;78.72;24.70;;;15.30;81.80;;;15.14;66.29;94424.88;5052013;28;20234;-80
2021/10/05 04:15:05;;;;;;;54.75;24.10;;;15.30;81.90;;;15.18;66.87;94419.94;5053495;28;20195;-81
2021/10/05 04:17:32;;;;;;;47.67;23.85;;;15.30;82.70;;;15.19;66.53;94413.63;5036722;28;20812;-81
2021/10/05 04:19:59;;;;;;;39.65;24.55;;;15.30;81.90;;;15.21;66.51;94411.56;5051159;28;20256;-80
2021/10/05 04:22:28;;;;;;;39.30;25.33;;;15.40;81.90;;;15.26;67.08;94416.13;5052524;28;20285;-80
2021/10/05 04:24:55;;;;;;;40.83;25.15;;;15.40;82.00;;;15.27;66.96;94394.75;5037012;28;20187;-80
2021/10/05 04:27:22;;;;;;;40.28;24.60;;;15.40;82.10;;;15.30;67.18;94390.84;5020153;28;20246;-80
2021/10/05 04:29:50;;;;;;;36.05;24.60;;;15.50;82.20;;;15.34;66.85;94384.06;5032684;28;20206;-80
2021/10/05 04:32:17;;;;;;;33.92;24.30;;;15.50;82.20;;;15.36;66.86;94393.34;5032945;28;20326;-81
2021/10/05 04:34:44;;;;;;;40.47;24.23;;;15.50;82.10;;;15.41;67.00;94391.84;5034374;28;20250;-81
2021/10/05 04:37:11;;;;;;;33.38;23.20;;;15.50;82.20;;;15.43;67.17;94390.59;5052792;28;20748;-81
2021/10/05 04:39:38;;;;;;;35.05;24.80;;;15.60;82.20;;;15.46;67.11;94390.09;5032564;28;20231;-80
2021/10/05 04:42:06;;;;;;;31.70;22.70;;;15.60;82.30;;;15.45;66.91;94379.78;5049516;28;20216;-81
2021/10/05 04:44:34;;;;;;;36.80;24.65;;;15.60;82.30;;;15.52;67.14;94389.16;5033245;28;20196;-81
2021/10/05 04:47:01;;;;;;;35.28;23.42;;;15.60;82.30;;;15.56;67.21;94384.19;5035347;28;20302;-80
2021/10/05 04:49:28;;;;;;;32.10;22.38;;;15.70;82.40;;;15.55;67.29;94379.16;5036278;28;20638;-81
2021/10/05 04:51:55;;;;;;;29.40;21.02;;;15.70;82.30;;;15.60;67.33;94382.72;5032760;28;20589;-81
2021/10/05 04:54:22;;;;;;;28.52;20.98;;;15.70;82.30;;;15.63;67.38;94365.56;5054423;28;20195;-82
2021/10/05 04:56:51;;;;;;;29.25;20.48;;;15.70;82.30;;;15.63;67.50;94366.34;5036002;28;20285;-82
2021/10/05 04:59:19;;;;;;;32.10;21.92;;;15.80;82.40;;;15.67;67.14;94379.91;5019584;28;20715;-81
2021/10/05 05:01:46;;;;;;;27.65;20.13;;;15.90;82.40;;;15.68;67.18;94377.03;5052600;28;20582;-81
2021/10/05 05:04:16;;;;;;;29.25;20.25;;;15.80;82.30;;;15.71;67.43;94373.13;5036053;28;20634;-81
2021/10/05 05:06:44;;;;;;;28.77;21.00;;;15.80;82.30;;;15.73;67.54;94384.25;5032331;28;20236;-81
2021/10/05 05:09:12;;;;;;;24.63;19.88;;;15.80;82.30;;;15.74;67.13;94382.41;5043612;28;20280;-81
2021/10/05 05:11:39;;;;;;;26.45;20.00;;;15.90;82.40;;;15.75;67.36;94373.44;5063691;28;20210;-81
2021/10/05 05:14:11;;;;;;;26.70;21.38;;;15.90;82.30;;;15.76;67.79;94380.31;5032712;28;20234;-80
2021/10/05 05:16:40;;;;;;;28.27;21.67;;;15.90;82.30;;;15.75;67.65;94384.81;5052734;28;20721;-79
2021/10/05 05:19:09;;;;;;;28.27;20.60;;;15.90;82.40;;;15.78;67.56;94386.19;5035671;28;20210;-80
2021/10/05 05:21:36;;;;;;;30.23;20.02;;;16.00;82.40;;;15.79;67.54;94371.94;5035045;28;20213;-79
2021/10/05 05:24:04;;;;;;;26.60;18.95;;;15.90;82.40;;;15.78;67.37;94375.59;5019027;28;20673;-80
2021/10/05 05:26:32;;;;;;;26.35;19.02;;;16.00;82.40;;;15.84;67.17;94377.31;5035310;28;20630;-81
2021/10/05 05:28:59;;;;;;;27.20;19.58;;;16.00;82.40;;;15.83;67.61;94365.16;5035024;28;20223;-81
2021/10/05 05:31:26;;;;;;;27.30;19.67;;;16.00;82.40;;;15.86;67.54;94366.53;5035499;28;20322;-82
2021/10/05 05:33:53;;;;;;;26.17;18.95;;;16.00;82.40;;;15.85;67.17;94349.84;5035103;28;20636;-80
2021/10/05 05:36:20;;;;;;;26.98;18.65;;;16.00;82.40;;;15.82;67.64;94348.50;5034861;28;20277;-81
2021/10/05 05:38:48;;;;;;;26.00;19.50;;;16.10;82.40;;;15.88;67.78;94362.59;5035182;28;20199;-81
2021/10/05 05:41:15;;;;;;;23.45;19.45;;;16.00;82.40;;;15.90;67.36;94376.38;5051139;28;20234;-80
2021/10/05 05:43:42;;;;;;;25.50;18.30;;;16.10;82.40;;;15.90;67.61;94368.44;5062076;28;20663;-80
2021/10/05 05:46:11;;;;;;;23.75;19.08;;;16.10;82.40;;;15.91;67.55;94362.13;5019201;28;20223;-80
2021/10/05 05:48:38;;;;;;;24.75;18.65;;;16.10;82.50;;;15.94;67.26;94363.47;5018818;28;20223;-80
2021/10/05 05:51:06;;;;;;;22.77;18.25;;;16.10;82.40;;;15.94;67.54;94359.00;5015477;28;20223;-81
2021/10/05 05:53:33;;;;;;;24.40;18.48;;;16.10;82.40;;;16.00;67.19;94362.53;5034131;28;20199;-79
2021/10/05 05:56:00;;;;;;;21.80;17.17;;;16.10;82.40;;;16.02;67.55;94349.06;5067859;28;20215;-79
2021/10/05 05:58:27;;;;;;;22.77;17.35;;;16.20;82.50;;;16.03;67.00;94354.13;5031860;28;20196;-80
2021/10/05 06:00:54;;;;;;;23.92;18.30;;;16.20;82.50;;;16.08;67.44;94354.19;5015356;28;20318;-80
2021/10/05 06:03:22;;;;;;;25.75;18.73;;;16.20;82.50;;;16.12;67.21;94359.81;5046573;28;20641;-80
2021/10/05 06:05:49;;;;;;;21.45;18.23;;;16.20;82.50;;;16.13;67.68;94354.28;5051080;28;20227;-80
2021/10/05 06:08:17;;;;;;;22.05;17.75;;;16.30;82.50;;;16.17;66.90;94360.72;5051376;28;20223;-80
2021/10/05 06:10:44;;;;;;;22.33;16.95;;;16.30;82.50;;;16.20;67.07;94350.66;5034637;28;20215;-80
2021/10/05 06:13:11;;;;;;;22.25;18.17;;;16.30;82.40;;;16.22;67.49;94346.75;5082737;28;20187;-79
2021/10/05 06:15:39;;;;;;;22.42;17.25;;;16.40;82.50;;;16.20;67.22;94346.19;5051026;28;20196;-80
2021/10/05 06:18:06;;;;;;;20.92;17.33;;;16.40;82.50;;;16.28;67.42;94351.09;5033497;28;20228;-80
2021/10/05 06:20:33;;;;;;;22.25;17.38;;;16.40;82.40;;;16.31;67.35;94352.44;5034988;28;20195;-80
2021/10/05 06:23:00;;;;;;;20.73;16.40;;;16.40;82.40;;;16.33;67.38;94353.81;5050640;28;20645;-81
2021/10/05 06:25:30;;;;;;;19.98;16.52;;;16.50;82.50;;;16.38;67.28;94370.78;5034316;28;20249;-80
2021/10/05 06:27:59;;;;;;;22.38;16.65;;;16.50;82.50;;;16.39;67.44;94338.78;5034051;28;20227;-79
2021/10/05 06:30:27;;;;;;;23.38;16.63;;;16.50;82.40;;;16.44;67.03;94335.41;5031736;28;20266;-79
2021/10/05 06:32:56;;;;;;;21.55;16.40;;;16.50;83.20;;;16.48;66.90;94339.19;5017047;28;20223;-79
2021/10/05 06:35:28;;;;;;;19.65;15.27;;;16.50;82.40;;;16.53;66.84;94333.97;5048476;28;20282;-79
2021/10/05 06:37:57;;;;;;;18.88;15.57;;;16.60;82.50;;;16.57;66.86;94326.34;5013315;28;20199;-79
2021/10/05 06:40:28;;;;;;;19.17;15.15;;;16.60;82.40;;;16.60;67.14;94318.72;5030049;28;20195;-80
2021/10/05 06:42:55;;;;;;;19.35;15.57;;;16.70;82.40;;;16.63;66.74;94322.72;5031976;28;20207;-79
2021/10/05 06:45:23;;;;;;;19.75;16.40;;;16.80;82.40;;;16.63;66.84;94320.06;5033417;28;20191;-79
2021/10/05 06:47:50;;;;;;;19.17;15.50;;;16.80;82.30;;;16.69;66.87;94320.97;5033294;28;20610;-80
2021/10/05 06:50:19;;;;;;;19.75;15.43;;;16.80;82.30;;;16.72;67.07;94323.91;5050764;28;20191;-79
2021/10/05 06:52:46;;;;;;;20.63;15.73;;;16.80;82.30;;;16.75;66.58;94328.72;5032348;28;20705;-80
2021/10/05 06:55:14;;;;;;;18.60;15.82;;;16.80;82.10;;;16.77;66.74;94323.16;5067612;28;20278;-80
2021/10/05 06:57:41;;;;;;;19.30;16.33;;;16.90;82.20;;;16.81;66.47;94327.72;5031555;28;20575;-79
2021/10/05 07:00:15;;;;;;;20.27;16.40;;;16.80;82.10;;;16.85;66.55;94325.38;5034016;28;20659;-80
2021/10/05 07:02:47;;;;;;;18.67;15.02;;;16.90;82.20;;;16.88;66.82;94324.91;5046223;28;20314;-79
2021/10/05 07:05:18;;;;;;;17.92;14.98;;;16.90;82.10;;;16.93;66.88;94324.19;5018042;28;20215;-80
2021/10/05 07:07:50;;;;;;;18.42;14.90;;;17.00;82.20;;;16.96;66.66;94321.84;5017451;28;20223;-80
2021/10/05 07:10:22;;;;;;;17.23;14.07;;;17.00;82.10;;;17.01;66.81;94323.75;5047222;28;20204;-79
2021/10/05 07:12:51;;;;;;;19.73;14.57;;;17.10;82.20;;;17.06;66.64;94330.97;5044346;28;20188;-80
2021/10/05 07:15:19;;;;;;;18.10;14.82;;;17.10;82.10;;;17.11;66.54;94334.50;5049990;28;20206;-79
2021/10/05 07:17:51;;;;;;;16.40;14.20;;;17.20;82.20;;;17.17;66.11;94322.09;5031275;28;20254;-79
2021/10/05 07:20:28;;;;;;;15.43;13.48;;;17.10;82.20;;;17.24;66.43;94328.00;5049149;28;20188;-79
2021/10/05 07:22:57;;;;;;;15.75;13.68;;;17.40;82.40;;;17.34;66.23;94321.22;5031899;28;20667;-80
2021/10/05 07:25:27;;;;;;;18.05;13.65;;;17.30;82.30;;;17.44;66.41;94322.13;5032354;28;20196;-80
2021/10/05 07:27:55;;;;;;;19.85;15.10;;;17.30;82.30;;;17.52;66.06;94315.56;5013043;28;20235;-80
2021/10/05 07:30:23;;;;;;;17.15;14.63;;;17.40;82.30;;;17.60;66.36;94315.13;5032078;28;20270;-79
2021/10/05 07:32:55;;;;;;;18.52;14.73;;;17.50;82.30;;;17.63;65.86;94315.69;5049074;28;20198;-79
2021/10/05 07:35:23;;;;;;;19.70;13.88;;;17.60;82.10;;;17.71;65.71;94316.03;5032708;28;20195;-79
2021/10/05 07:37:50;;;;;;;17.20;13.82;;;17.70;82.20;;;17.81;65.96;94325.13;5048630;28;20194;-79
2021/10/05 07:40:20;;;;;;;17.25;14.32;;;17.70;82.00;;;17.86;65.34;94327.84;5033068;28;20234;-79
2021/10/05 07:42:50;;;;;;;16.33;13.13;;;17.80;82.00;;;17.89;65.38;94319.38;5013374;28;20311;-79
2021/10/05 07:45:19;;;;;;;18.10;13.50;;;17.80;81.80;;;17.91;65.57;94325.22;5021577;28;20235;-80
2021/10/05 07:47:46;;;;;;;16.85;13.73;;;17.80;81.70;;;17.89;65.42;94312.22;5049785;28;20239;-79
2021/10/05 07:50:13;;;;;;;18.30;13.60;;;17.80;81.60;;;17.95;65.60;94325.56;5036550;28;20613;-79
2021/10/05 07:52:41;;;;;;;17.10;14.05;;;17.90;81.60;;;17.97;65.09;94320.78;5013414;28;20314;-79
2021/10/05 07:55:09;;;;;;;16.15;13.90;;;17.90;81.60;;;18.02;65.48;94326.94;5032013;28;20199;-79
2021/10/05 07:57:36;;;;;;;18.75;13.63;;;17.90;82.40;;;18.04;64.89;94318.72;5036108;28;20685;-80
2021/10/05 08:00:08;;;;;;;15.68;13.15;;;17.90;81.50;;;18.13;65.41;94316.41;5036516;28;20219;-81
2021/10/05 08:02:39;;;;;;;16.08;12.35;;;17.90;82.30;;;18.17;65.35;94328.91;5023219;28;20234;-80
2021/10/05 08:05:07;;;;;;;15.60;12.60;;;18.00;81.50;;;18.22;64.92;94323.66;5055394;28;20195;-81
2021/10/05 08:07:34;;;;;;;17.13;12.60;;;18.00;81.60;;;18.26;65.02;94315.16;5035762;28;20247;-81
2021/10/05 08:10:02;;;;;;;16.10;12.20;;;18.10;81.80;;;18.38;64.98;94321.91;5033491;28;20231;-80
2021/10/05 08:12:29;;;;;;;12.90;11.25;;;18.10;81.90;;;18.49;65.44;94316.66;5032418;28;20223;-81
2021/10/05 08:14:57;;;;;;;15.27;11.77;;;18.20;82.10;;;18.61;65.36;94322.56;5042428;28;20195;-81
2021/10/05 08:17:24;;;;;;;14.60;10.85;;;18.30;82.10;;;18.71;65.08;94319.97;5018976;28;20832;-79
2021/10/05 08:19:51;;;;;;;14.82;11.05;;;18.50;82.30;;;18.84;65.10;94320.56;5052340;28;20223;-81
2021/10/05 08:22:20;;;;;;;12.95;11.60;;;18.50;82.20;;;18.96;64.73;94318.53;5032943;28;20634;-81
2021/10/05 08:24:47;;;;;;;15.00;11.63;;;18.50;82.10;;;19.06;64.66;94309.00;5046208;28;20195;-81
2021/10/05 08:27:14;;;;;;;13.55;10.82;;;18.60;82.00;;;19.20;64.51;94313.59;5032956;28;20254;-81
2021/10/05 08:29:44;;;;;;;12.10;10.70;;;18.80;81.90;;;19.32;64.75;94308.03;5035487;28;20255;-81
2021/10/05 08:32:14;;;;;;;11.98;10.68;;;18.80;81.90;;;19.45;64.25;94305.94;5044500;28;20214;-80
2021/10/05 08:34:42;;;;;;;12.18;10.63;;;18.90;81.80;;;19.56;64.25;94309.44;5052390;28;20192;-81
2021/10/05 08:37:10;;;;;;;11.90;10.00;;;19.10;81.80;;;19.70;64.55;94307.88;5035511;28;20251;-80
2021/10/05 08:39:37;;;;;;;12.30;9.93;;;19.20;81.60;;;19.81;64.00;94303.31;5052261;28;20199;-80
2021/10/05 08:42:06;;;;;;;14.52;9.38;;;19.40;81.30;;;19.93;63.27;94308.44;5036506;28;20215;-80
2021/10/05 08:44:34;;;;;;;11.07;9.18;;;19.40;81.30;;;20.07;63.59;94303.41;5035737;28;20260;-81
2021/10/05 08:47:01;;;;;;;11.18;9.38;;;19.50;81.40;;;20.15;63.13;94306.31;5035909;28;20261;-81
2021/10/05 08:49:28;;;;;;;9.90;8.90;;;19.70;81.40;;;20.26;62.73;94296.47;5052634;28;20238;-82
2021/10/05 08:51:56;;;;;;;10.75;8.98;;;19.80;81.10;;;20.40;62.62;94296.69;5019860;28;20584;-81
2021/10/05 08:54:23;;;;;;;9.82;8.82;;;19.90;80.80;;;20.53;62.33;94291.88;5053051;28;20550;-81
2021/10/05 08:56:51;;;;;;;11.52;8.55;;;20.00;80.60;;;20.65;62.42;94287.06;5034851;28;20310;-81
2021/10/05 08:59:18;;;;;;;12.23;9.35;;;20.10;80.60;;;20.76;61.71;94283.34;5035389;28;20190;-80
2021/10/05 09:01:49;;;;;;;9.82;8.10;;;20.20;80.10;;;20.85;61.26;94277.44;5052161;28;20226;-80
2021/10/05 09:04:17;;;;;;;8.90;8.00;;;20.30;79.90;;;20.99;60.86;94286.44;5035981;28;20457;-81
2021/10/05 09:06:51;;;;;;;10.63;7.45;;;20.40;79.50;;;21.13;60.77;94288.53;5032955;28;20702;-81
2021/10/05 09:09:19;;;;;;;8.98;7.50;;;20.60;79.00;;;21.25;60.76;94278.31;5036161;28;20288;-81
2021/10/05 09:11:51;;;;;;;8.88;6.85;;;20.70;79.30;;;21.36;60.31;94273.72;5035859;28;20207;-82
2021/10/05 09:14:20;;;;;;;8.35;6.93;;;20.80;78.80;;;21.54;60.10;94291.75;5016611;28;20228;-81
2021/10/05 09:16:48;;;;;;;11.75;7.45;;;20.90;78.80;;;21.67;59.15;94290.41;5028852;28;20737;-82
2021/10/05 09:19:17;;;;;;;9.63;7.05;;;21.00;78.30;;;21.76;58.90;94277.25;5035251;28;20213;-80
2021/10/05 09:21:49;;;;;;;19.65;7.55;;;21.20;77.80;;;21.90;58.46;94285.44;5019360;28;20601;-80
2021/10/05 09:24:27;;;;;;;8.38;6.75;;;21.30;77.20;;;22.04;58.15;94283.69;5034816;28;20602;-79
2021/10/05 09:27:02;;;;;;;26.30;6.95;;;21.50;76.80;;;22.09;57.38;94274.06;5051541;28;20226;-79
2021/10/05 09:29:38;;;;;;;8.93;6.85;;;21.60;76.80;;;22.23;57.02;94288.38;5058418;28;20789;-80
2021/10/05 09:32:32;;;;;;;11.32;6.97;;;21.70;76.00;;;22.35;56.44;94288.81;5035492;28;20856;-80
2021/10/05 09:34:59;;;;;;;12.02;6.70;;;21.80;75.80;;;22.42;56.53;94277.00;5032567;28;20714;-81
2021/10/05 09:37:36;;;;;;;7.32;6.22;;;21.90;75.70;;;22.54;55.95;94283.59;4999455;28;20305;-79
2021/10/05 09:40:10;;;;;;;15.27;6.30;;;22.00;75.00;;;22.64;55.64;94277.34;5034021;28;20230;-80
2021/10/05 09:42:50;;;;;;;6.50;5.90;;;22.10;75.00;;;22.74;55.63;94275.63;5050262;28;20227;-81
2021/10/05 09:45:21;;;;;;;7.28;5.75;;;22.20;74.90;;;22.82;55.45;94272.31;5034282;28;20203;-80
2021/10/05 09:47:53;;;;;;;11.80;6.57;;;22.30;74.70;;;22.91;55.51;94275.97;5018017;28;20659;-80
2021/10/05 09:50:33;;;;;;;6.72;6.03;;;22.40;74.90;;;22.97;55.02;94264.13;5018003;28;20333;-81
2021/10/05 09:53:04;;;;;;;7.28;5.93;;;22.50;74.30;;;23.10;54.77;94267.97;5033762;28;20206;-80
2021/10/05 09:55:40;;;;;;;6.63;5.90;;;22.50;74.10;;;23.22;54.78;94272.94;5050494;28;20206;-80
2021/10/05 09:58:08;;;;;;;13.05;5.95;;;22.60;74.00;;;23.30;54.33;94266.13;5017550;28;20282;-80
2021/10/05 10:00:46;;;;;;;6.60;6.00;;;22.80;74.00;;;23.39;54.15;94279.66;5017402;28;20250;-80
2021/10/05 10:03:17;;;;;;;7.20;6.00;;;22.80;73.40;;;23.46;54.06;94275.56;5017155;28;20203;-80
2021/10/05 10:05:45;;;;;;;10.20;6.10;;;22.90;73.00;;;23.52;53.19;94270.13;5047249;28;20227;-80
2021/10/05 10:08:14;;;;;;;12.05;5.75;;;23.00;72.90;;;23.59;52.93;94278.59;5030360;28;20205;-80
2021/10/05 10:10:41;;;;;;;7.10;5.63;;;23.10;73.00;;;23.66;53.07;94274.47;5030681;28;20205;-80
2021/10/05 10:13:11;;;;;;;6.45;5.82;;;23.10;72.70;;;23.74;52.69;94266.88;5047736;28;20651;-80
2021/10/05 10:15:42;;;;;;;6.65;5.93;;;23.20;72.40;;;23.86;52.16;94274.47;5030502;28;20197;-80